sensor_id;sensor_type;location;lat;lon;timestamp;P1;durP1;ratioP1;P2;durP2;ratioP2
71572;SDS011;59408;51.032;9.410;2023-10-13T00:01:48;16.25;;;8.23;;
71572;SDS011;59408;51.032;9.410;2023-10-13T00:04:16;15.07;;;7.70;;
71572;SDS011;59408;51.032;9.410;2023-10-13T00:06:44;19.38;;;8.25;;
71572;SDS011;59408;51.032;9.410;2023-10-13T00:09:10;15.65;;;8.15;;
71572;SDS011;59408;51.032;9.410;2023-10-13T00:11:40;17.15;;;8.35;;
71572;SDS011;59408;51.032;9.410;2023-10-13T00:14:07;15.93;;;8.25;;
71572;SDS011;59408;51.032;9.410;2023-10-13T00:16:34;16.33;;;8.10;;
71572;SDS011;59408;51.032;9.410;2023-10-13T00:19:00;15.85;;;8.38;;
71572;SDS011;59408;51.032;9.410;2023-10-13T00:21:27;16.67;;;8.35;;
71572;SDS011;59408;51.032;9.410;2023-10-13T00:23:55;17.80;;;8.52;;
71572;SDS011;59408;51.032;9.410;2023-10-13T00:26:22;18.77;;;8.93;;
71572;SDS011;59408;51.032;9.410;2023-10-13T00:28:50;17.73;;;8.57;;
71572;SDS011;59408;51.032;9.410;2023-10-13T00:31:16;18.80;;;8.55;;
71572;SDS011;59408;51.032;9.410;2023-10-13T00:33:43;17.52;;;8.18;;
71572;SDS011;59408;51.032;9.410;2023-10-13T00:36:09;16.67;;;8.38;;
71572;SDS011;59408;51.032;9.410;2023-10-13T00:38:35;14.77;;;8.30;;
71572;SDS011;59408;51.032;9.410;2023-10-13T00:41:03;15.40;;;8.20;;
71572;SDS011;59408;51.032;9.410;2023-10-13T00:43:30;18.30;;;8.38;;
71572;SDS011;59408;51.032;9.410;2023-10-13T00:45:57;17.85;;;8.57;;
71572;SDS011;59408;51.032;9.410;2023-10-13T00:48:28;15.25;;;7.82;;
71572;SDS011;59408;51.032;9.410;2023-10-13T00:50:56;16.77;;;7.43;;
71572;SDS011;59408;51.032;9.410;2023-10-13T00:53:23;17.43;;;7.57;;
71572;SDS011;59408;51.032;9.410;2023-10-13T00:55:51;18.33;;;7.78;;
71572;SDS011;59408;51.032;9.410;2023-10-13T00:58:19;17.45;;;7.43;;
71572;SDS011;59408;51.032;9.410;2023-10-13T01:00:47;13.05;;;7.45;;
71572;SDS011;59408;51.032;9.410;2023-10-13T01:03:14;15.65;;;7.75;;
71572;SDS011;59408;51.032;9.410;2023-10-13T01:05:41;16.93;;;7.90;;
71572;SDS011;59408;51.032;9.410;2023-10-13T01:08:08;15.80;;;8.50;;
71572;SDS011;59408;51.032;9.410;2023-10-13T01:10:34;15.07;;;7.57;;
71572;SDS011;59408;51.032;9.410;2023-10-13T01:13:01;14.82;;;7.47;;
71572;SDS011;59408;51.032;9.410;2023-10-13T01:15:29;14.60;;;7.57;;
71572;SDS011;59408;51.032;9.410;2023-10-13T01:18:05;13.90;;;6.90;;
71572;SDS011;59408;51.032;9.410;2023-10-13T01:20:32;16.52;;;7.80;;
71572;SDS011;59408;51.032;9.410;2023-10-13T01:22:58;16.38;;;7.70;;
71572;SDS011;59408;51.032;9.410;2023-10-13T01:25:26;14.27;;;7.07;;
71572;SDS011;59408;51.032;9.410;2023-10-13T01:27:53;17.58;;;7.55;;
71572;SDS011;59408;51.032;9.410;2023-10-13T01:30:20;16.87;;;7.60;;
71572;SDS011;59408;51.032;9.410;2023-10-13T01:32:46;17.52;;;7.40;;
71572;SDS011;59408;51.032;9.410;2023-10-13T01:35:13;14.82;;;7.00;;
71572;SDS011;59408;51.032;9.410;2023-10-13T01:37:40;16.48;;;7.25;;
71572;SDS011;59408;51.032;9.410;2023-10-13T01:40:07;14.70;;;6.78;;
71572;SDS011;59408;51.032;9.410;2023-10-13T01:42:35;13.07;;;7.30;;
71572;SDS011;59408;51.032;9.410;2023-10-13T01:45:02;13.23;;;7.10;;
71572;SDS011;59408;51.032;9.410;2023-10-13T01:47:28;13.80;;;6.97;;
71572;SDS011;59408;51.032;9.410;2023-10-13T01:49:55;14.07;;;6.78;;
71572;SDS011;59408;51.032;9.410;2023-10-13T01:52:21;14.13;;;7.38;;
71572;SDS011;59408;51.032;9.410;2023-10-13T01:54:48;14.87;;;6.43;;
71572;SDS011;59408;51.032;9.410;2023-10-13T01:57:14;14.45;;;7.35;;
71572;SDS011;59408;51.032;9.410;2023-10-13T01:59:43;14.07;;;6.38;;
71572;SDS011;59408;51.032;9.410;2023-10-13T02:02:10;12.95;;;6.43;;
71572;SDS011;59408;51.032;9.410;2023-10-13T02:04:37;15.18;;;6.47;;
71572;SDS011;59408;51.032;9.410;2023-10-13T02:07:04;11.07;;;5.87;;
71572;SDS011;59408;51.032;9.410;2023-10-13T02:09:30;13.68;;;5.93;;
71572;SDS011;59408;51.032;9.410;2023-10-13T02:11:57;13.13;;;6.47;;
71572;SDS011;59408;51.032;9.410;2023-10-13T02:14:24;12.35;;;5.93;;
71572;SDS011;59408;51.032;9.410;2023-10-13T02:16:51;12.73;;;5.55;;
71572;SDS011;59408;51.032;9.410;2023-10-13T02:19:18;12.17;;;5.57;;
71572;SDS011;59408;51.032;9.410;2023-10-13T02:21:45;11.73;;;5.97;;
71572;SDS011;59408;51.032;9.410;2023-10-13T02:24:12;11.02;;;5.63;;
71572;SDS011;59408;51.032;9.410;2023-10-13T02:26:38;13.13;;;5.95;;
71572;SDS011;59408;51.032;9.410;2023-10-13T02:29:05;12.32;;;5.55;;
71572;SDS011;59408;51.032;9.410;2023-10-13T02:31:32;12.77;;;5.80;;
71572;SDS011;59408;51.032;9.410;2023-10-13T02:34:00;11.70;;;6.00;;
71572;SDS011;59408;51.032;9.410;2023-10-13T02:36:26;12.48;;;5.75;;
71572;SDS011;59408;51.032;9.410;2023-10-13T02:38:52;13.43;;;6.32;;
71572;SDS011;59408;51.032;9.410;2023-10-13T02:41:19;13.75;;;6.25;;
71572;SDS011;59408;51.032;9.410;2023-10-13T02:43:46;12.13;;;6.33;;
71572;SDS011;59408;51.032;9.410;2023-10-13T02:46:12;12.75;;;6.60;;
71572;SDS011;59408;51.032;9.410;2023-10-13T02:48:39;14.02;;;5.90;;
71572;SDS011;59408;51.032;9.410;2023-10-13T02:51:07;14.00;;;6.30;;
71572;SDS011;59408;51.032;9.410;2023-10-13T02:53:34;13.68;;;6.80;;
71572;SDS011;59408;51.032;9.410;2023-10-13T02:56:01;12.13;;;6.50;;
71572;SDS011;59408;51.032;9.410;2023-10-13T02:58:27;13.88;;;6.68;;
71572;SDS011;59408;51.032;9.410;2023-10-13T03:00:54;12.15;;;6.03;;
71572;SDS011;59408;51.032;9.410;2023-10-13T03:03:20;13.35;;;6.82;;
71572;SDS011;59408;51.032;9.410;2023-10-13T03:05:47;13.32;;;6.70;;
71572;SDS011;59408;51.032;9.410;2023-10-13T03:08:15;12.47;;;6.20;;
71572;SDS011;59408;51.032;9.410;2023-10-13T03:10:41;14.30;;;6.88;;
71572;SDS011;59408;51.032;9.410;2023-10-13T03:13:08;13.32;;;6.78;;
71572;SDS011;59408;51.032;9.410;2023-10-13T03:15:34;15.30;;;6.30;;
71572;SDS011;59408;51.032;9.410;2023-10-13T03:18:01;14.43;;;6.35;;
71572;SDS011;59408;51.032;9.410;2023-10-13T03:20:27;13.70;;;6.47;;
71572;SDS011;59408;51.032;9.410;2023-10-13T03:22:54;13.50;;;6.45;;
71572;SDS011;59408;51.032;9.410;2023-10-13T03:25:22;14.52;;;6.78;;
71572;SDS011;59408;51.032;9.410;2023-10-13T03:27:48;13.65;;;5.72;;
71572;SDS011;59408;51.032;9.410;2023-10-13T03:30:15;13.90;;;6.22;;
71572;SDS011;59408;51.032;9.410;2023-10-13T03:32:42;12.03;;;6.27;;
71572;SDS011;59408;51.032;9.410;2023-10-13T03:35:09;12.60;;;6.22;;
71572;SDS011;59408;51.032;9.410;2023-10-13T03:37:35;11.85;;;6.13;;
71572;SDS011;59408;51.032;9.410;2023-10-13T03:40:02;14.50;;;5.80;;
71572;SDS011;59408;51.032;9.410;2023-10-13T03:42:30;11.45;;;5.78;;
71572;SDS011;59408;51.032;9.410;2023-10-13T03:44:57;11.67;;;5.37;;
71572;SDS011;59408;51.032;9.410;2023-10-13T03:47:24;11.80;;;5.57;;
71572;SDS011;59408;51.032;9.410;2023-10-13T03:49:50;13.02;;;6.22;;
71572;SDS011;59408;51.032;9.410;2023-10-13T03:52:17;13.40;;;5.53;;
71572;SDS011;59408;51.032;9.410;2023-10-13T03:54:43;12.30;;;5.57;;
71572;SDS011;59408;51.032;9.410;2023-10-13T03:57:10;14.17;;;5.63;;
71572;SDS011;59408;51.032;9.410;2023-10-13T03:59:38;11.48;;;5.22;;
71572;SDS011;59408;51.032;9.410;2023-10-13T04:02:04;10.38;;;5.00;;
71572;SDS011;59408;51.032;9.410;2023-10-13T04:04:31;11.93;;;5.72;;
71572;SDS011;59408;51.032;9.410;2023-10-13T04:06:57;12.15;;;5.30;;
71572;SDS011;59408;51.032;9.410;2023-10-13T04:09:24;12.83;;;5.07;;
71572;SDS011;59408;51.032;9.410;2023-10-13T04:11:50;11.38;;;5.13;;
71572;SDS011;59408;51.032;9.410;2023-10-13T04:14:17;13.52;;;4.95;;
71572;SDS011;59408;51.032;9.410;2023-10-13T04:16:45;12.00;;;5.25;;
71572;SDS011;59408;51.032;9.410;2023-10-13T04:19:11;14.70;;;5.50;;
71572;SDS011;59408;51.032;9.410;2023-10-13T04:21:38;19.90;;;5.60;;
71572;SDS011;59408;51.032;9.410;2023-10-13T04:24:05;12.80;;;4.90;;
71572;SDS011;59408;51.032;9.410;2023-10-13T04:26:32;10.48;;;5.10;;
71572;SDS011;59408;51.032;9.410;2023-10-13T04:29:01;12.40;;;4.75;;
71572;SDS011;59408;51.032;9.410;2023-10-13T04:31:28;13.52;;;5.70;;
71572;SDS011;59408;51.032;9.410;2023-10-13T04:33:55;11.00;;;5.00;;
71572;SDS011;59408;51.032;9.410;2023-10-13T04:36:22;11.90;;;5.40;;
71572;SDS011;59408;51.032;9.410;2023-10-13T04:38:49;11.90;;;5.28;;
71572;SDS011;59408;51.032;9.410;2023-10-13T04:41:16;11.05;;;4.80;;
71572;SDS011;59408;51.032;9.410;2023-10-13T04:43:43;12.98;;;5.15;;
71572;SDS011;59408;51.032;9.410;2023-10-13T04:46:09;10.83;;;5.30;;
71572;SDS011;59408;51.032;9.410;2023-10-13T04:48:36;12.18;;;5.53;;
71572;SDS011;59408;51.032;9.410;2023-10-13T04:51:08;13.07;;;5.30;;
71572;SDS011;59408;51.032;9.410;2023-10-13T04:53:34;10.57;;;5.22;;
71572;SDS011;59408;51.032;9.410;2023-10-13T04:56:01;12.07;;;5.72;;
71572;SDS011;59408;51.032;9.410;2023-10-13T04:58:27;11.90;;;4.77;;
71572;SDS011;59408;51.032;9.410;2023-10-13T05:00:54;11.60;;;5.47;;
71572;SDS011;59408;51.032;9.410;2023-10-13T05:03:24;11.32;;;5.60;;
71572;SDS011;59408;51.032;9.410;2023-10-13T05:05:51;13.07;;;5.43;;
71572;SDS011;59408;51.032;9.410;2023-10-13T05:08:19;11.75;;;5.88;;
71572;SDS011;59408;51.032;9.410;2023-10-13T05:10:45;10.30;;;4.80;;
71572;SDS011;59408;51.032;9.410;2023-10-13T05:13:12;11.93;;;5.30;;
71572;SDS011;59408;51.032;9.410;2023-10-13T05:15:46;13.38;;;5.15;;
71572;SDS011;59408;51.032;9.410;2023-10-13T05:18:14;11.00;;;5.45;;
71572;SDS011;59408;51.032;9.410;2023-10-13T05:20:40;11.60;;;5.30;;
71572;SDS011;59408;51.032;9.410;2023-10-13T05:23:07;10.93;;;5.23;;
71572;SDS011;59408;51.032;9.410;2023-10-13T05:25:35;13.52;;;5.07;;
71572;SDS011;59408;51.032;9.410;2023-10-13T05:28:02;12.38;;;5.40;;
71572;SDS011;59408;51.032;9.410;2023-10-13T05:30:32;11.15;;;6.10;;
71572;SDS011;59408;51.032;9.410;2023-10-13T05:32:59;13.32;;;5.47;;
71572;SDS011;59408;51.032;9.410;2023-10-13T05:35:25;11.87;;;5.63;;
71572;SDS011;59408;51.032;9.410;2023-10-13T05:37:52;12.20;;;5.60;;
71572;SDS011;59408;51.032;9.410;2023-10-13T05:40:18;9.93;;;5.35;;
71572;SDS011;59408;51.032;9.410;2023-10-13T05:42:46;12.38;;;6.00;;
71572;SDS011;59408;51.032;9.410;2023-10-13T05:45:13;14.43;;;6.38;;
71572;SDS011;59408;51.032;9.410;2023-10-13T05:47:39;11.87;;;5.67;;
71572;SDS011;59408;51.032;9.410;2023-10-13T05:50:06;15.05;;;5.88;;
71572;SDS011;59408;51.032;9.410;2023-10-13T05:52:33;10.98;;;5.45;;
71572;SDS011;59408;51.032;9.410;2023-10-13T05:55:00;11.82;;;6.10;;
71572;SDS011;59408;51.032;9.410;2023-10-13T05:57:26;13.75;;;5.65;;
71572;SDS011;59408;51.032;9.410;2023-10-13T05:59:54;11.37;;;5.13;;
71572;SDS011;59408;51.032;9.410;2023-10-13T06:02:21;12.63;;;5.18;;
71572;SDS011;59408;51.032;9.410;2023-10-13T06:04:48;14.15;;;5.55;;
71572;SDS011;59408;51.032;9.410;2023-10-13T06:07:15;13.82;;;5.88;;
71572;SDS011;59408;51.032;9.410;2023-10-13T06:09:42;12.30;;;5.25;;
71572;SDS011;59408;51.032;9.410;2023-10-13T06:12:08;13.30;;;6.20;;
71572;SDS011;59408;51.032;9.410;2023-10-13T06:14:35;13.75;;;5.60;;
71572;SDS011;59408;51.032;9.410;2023-10-13T06:17:03;13.82;;;5.15;;
71572;SDS011;59408;51.032;9.410;2023-10-13T06:19:29;12.00;;;4.93;;
71572;SDS011;59408;51.032;9.410;2023-10-13T06:21:56;16.13;;;5.28;;
71572;SDS011;59408;51.032;9.410;2023-10-13T06:24:22;13.27;;;5.30;;
71572;SDS011;59408;51.032;9.410;2023-10-13T06:26:49;11.45;;;5.28;;
71572;SDS011;59408;51.032;9.410;2023-10-13T06:29:16;12.57;;;5.15;;
71572;SDS011;59408;51.032;9.410;2023-10-13T06:31:42;15.65;;;5.00;;
71572;SDS011;59408;51.032;9.410;2023-10-13T06:34:10;14.90;;;5.68;;
71572;SDS011;59408;51.032;9.410;2023-10-13T06:36:36;12.83;;;4.87;;
71572;SDS011;59408;51.032;9.410;2023-10-13T06:39:03;13.32;;;5.20;;
71572;SDS011;59408;51.032;9.410;2023-10-13T06:41:29;14.90;;;5.18;;
71572;SDS011;59408;51.032;9.410;2023-10-13T06:43:56;14.75;;;4.97;;
71572;SDS011;59408;51.032;9.410;2023-10-13T06:46:22;12.60;;;5.07;;
71572;SDS011;59408;51.032;9.410;2023-10-13T06:48:49;11.07;;;4.73;;
71572;SDS011;59408;51.032;9.410;2023-10-13T06:51:17;14.93;;;5.20;;
71572;SDS011;59408;51.032;9.410;2023-10-13T06:53:44;10.95;;;4.68;;
71572;SDS011;59408;51.032;9.410;2023-10-13T06:56:11;16.52;;;4.82;;
71572;SDS011;59408;51.032;9.410;2023-10-13T06:58:37;12.63;;;5.22;;
71572;SDS011;59408;51.032;9.410;2023-10-13T07:01:06;11.77;;;4.90;;
71572;SDS011;59408;51.032;9.410;2023-10-13T07:03:32;13.18;;;5.07;;
71572;SDS011;59408;51.032;9.410;2023-10-13T07:05:59;14.40;;;4.78;;
71572;SDS011;59408;51.032;9.410;2023-10-13T07:08:27;12.13;;;4.65;;
71572;SDS011;59408;51.032;9.410;2023-10-13T07:10:54;11.50;;;4.10;;
71572;SDS011;59408;51.032;9.410;2023-10-13T07:13:21;11.67;;;4.70;;
71572;SDS011;59408;51.032;9.410;2023-10-13T07:15:48;12.63;;;5.00;;
71572;SDS011;59408;51.032;9.410;2023-10-13T07:18:14;12.35;;;4.40;;
71572;SDS011;59408;51.032;9.410;2023-10-13T07:20:41;13.85;;;4.55;;
71572;SDS011;59408;51.032;9.410;2023-10-13T07:23:08;10.70;;;4.55;;
71572;SDS011;59408;51.032;9.410;2023-10-13T07:25:36;13.23;;;4.63;;
71572;SDS011;59408;51.032;9.410;2023-10-13T07:28:03;13.15;;;4.70;;
71572;SDS011;59408;51.032;9.410;2023-10-13T07:30:30;14.07;;;4.25;;
71572;SDS011;59408;51.032;9.410;2023-10-13T07:32:56;12.05;;;4.40;;
71572;SDS011;59408;51.032;9.410;2023-10-13T07:35:23;15.40;;;4.53;;
71572;SDS011;59408;51.032;9.410;2023-10-13T07:37:50;11.37;;;4.17;;
71572;SDS011;59408;51.032;9.410;2023-10-13T07:40:17;11.90;;;4.30;;
71572;SDS011;59408;51.032;9.410;2023-10-13T07:42:45;11.75;;;4.65;;
71572;SDS011;59408;51.032;9.410;2023-10-13T07:45:11;13.32;;;4.13;;
71572;SDS011;59408;51.032;9.410;2023-10-13T07:47:38;11.85;;;4.95;;
71572;SDS011;59408;51.032;9.410;2023-10-13T07:50:05;12.30;;;4.63;;
71572;SDS011;59408;51.032;9.410;2023-10-13T07:52:32;12.10;;;4.60;;
71572;SDS011;59408;51.032;9.410;2023-10-13T07:55:00;10.35;;;4.40;;
71572;SDS011;59408;51.032;9.410;2023-10-13T07:57:27;12.45;;;4.65;;
71572;SDS011;59408;51.032;9.410;2023-10-13T07:59:55;13.10;;;4.72;;
71572;SDS011;59408;51.032;9.410;2023-10-13T08:02:21;14.43;;;5.00;;
71572;SDS011;59408;51.032;9.410;2023-10-13T08:04:48;15.43;;;4.97;;
71572;SDS011;59408;51.032;9.410;2023-10-13T08:07:15;11.55;;;4.32;;
71572;SDS011;59408;51.032;9.410;2023-10-13T08:09:42;14.38;;;4.82;;
71572;SDS011;59408;51.032;9.410;2023-10-13T08:12:08;11.80;;;4.60;;
71572;SDS011;59408;51.032;9.410;2023-10-13T08:14:35;13.90;;;4.93;;
71572;SDS011;59408;51.032;9.410;2023-10-13T08:17:06;12.77;;;4.55;;
71572;SDS011;59408;51.032;9.410;2023-10-13T08:19:33;15.75;;;4.75;;
71572;SDS011;59408;51.032;9.410;2023-10-13T08:22:01;17.92;;;4.45;;
71572;SDS011;59408;51.032;9.410;2023-10-13T08:24:28;12.90;;;4.70;;
71572;SDS011;59408;51.032;9.410;2023-10-13T08:26:55;12.50;;;4.70;;
71572;SDS011;59408;51.032;9.410;2023-10-13T08:29:22;13.27;;;4.90;;
71572;SDS011;59408;51.032;9.410;2023-10-13T08:31:49;14.52;;;4.50;;
71572;SDS011;59408;51.032;9.410;2023-10-13T08:34:18;10.13;;;4.40;;
71572;SDS011;59408;51.032;9.410;2023-10-13T08:36:45;15.65;;;4.55;;
71572;SDS011;59408;51.032;9.410;2023-10-13T08:39:11;13.27;;;4.53;;
71572;SDS011;59408;51.032;9.410;2023-10-13T08:41:38;12.93;;;4.13;;
71572;SDS011;59408;51.032;9.410;2023-10-13T08:44:05;12.43;;;4.70;;
71572;SDS011;59408;51.032;9.410;2023-10-13T08:46:34;13.63;;;4.97;;
71572;SDS011;59408;51.032;9.410;2023-10-13T08:49:01;12.93;;;4.22;;
71572;SDS011;59408;51.032;9.410;2023-10-13T08:51:31;15.63;;;4.60;;
71572;SDS011;59408;51.032;9.410;2023-10-13T08:53:59;10.65;;;4.03;;
71572;SDS011;59408;51.032;9.410;2023-10-13T08:56:26;16.02;;;4.70;;
71572;SDS011;59408;51.032;9.410;2023-10-13T08:58:53;15.15;;;4.68;;
71572;SDS011;59408;51.032;9.410;2023-10-13T09:01:20;17.92;;;4.35;;
71572;SDS011;59408;51.032;9.410;2023-10-13T09:03:49;11.50;;;4.57;;
71572;SDS011;59408;51.032;9.410;2023-10-13T09:06:15;11.75;;;4.28;;
71572;SDS011;59408;51.032;9.410;2023-10-13T09:08:43;22.10;;;4.20;;
71572;SDS011;59408;51.032;9.410;2023-10-13T09:11:10;12.48;;;4.30;;
71572;SDS011;59408;51.032;9.410;2023-10-13T09:13:36;13.60;;;4.28;;
71572;SDS011;59408;51.032;9.410;2023-10-13T09:16:08;12.87;;;4.50;;
71572;SDS011;59408;51.032;9.410;2023-10-13T09:18:35;12.82;;;4.43;;
71572;SDS011;59408;51.032;9.410;2023-10-13T09:21:02;12.05;;;4.25;;
71572;SDS011;59408;51.032;9.410;2023-10-13T09:23:28;12.07;;;4.00;;
71572;SDS011;59408;51.032;9.410;2023-10-13T09:25:56;13.25;;;4.28;;
71572;SDS011;59408;51.032;9.410;2023-10-13T09:28:31;13.10;;;4.40;;
71572;SDS011;59408;51.032;9.410;2023-10-13T09:30:58;12.15;;;3.97;;
71572;SDS011;59408;51.032;9.410;2023-10-13T09:33:25;13.65;;;4.43;;
71572;SDS011;59408;51.032;9.410;2023-10-13T09:35:53;14.52;;;4.43;;
71572;SDS011;59408;51.032;9.410;2023-10-13T09:38:19;12.27;;;4.10;;
71572;SDS011;59408;51.032;9.410;2023-10-13T09:40:46;14.43;;;4.20;;
71572;SDS011;59408;51.032;9.410;2023-10-13T09:43:14;9.75;;;3.72;;
71572;SDS011;59408;51.032;9.410;2023-10-13T09:45:42;11.82;;;3.97;;
71572;SDS011;59408;51.032;9.410;2023-10-13T09:48:12;13.00;;;4.00;;
71572;SDS011;59408;51.032;9.410;2023-10-13T09:50:42;15.15;;;4.32;;
71572;SDS011;59408;51.032;9.410;2023-10-13T09:53:10;9.83;;;3.87;;
71572;SDS011;59408;51.032;9.410;2023-10-13T09:55:38;13.95;;;4.50;;
71572;SDS011;59408;51.032;9.410;2023-10-13T09:58:09;13.65;;;4.82;;
71572;SDS011;59408;51.032;9.410;2023-10-13T10:00:40;12.05;;;4.00;;
71572;SDS011;59408;51.032;9.410;2023-10-13T10:03:09;12.15;;;4.60;;
71572;SDS011;59408;51.032;9.410;2023-10-13T10:05:36;10.10;;;3.87;;
71572;SDS011;59408;51.032;9.410;2023-10-13T10:08:03;12.85;;;4.00;;
71572;SDS011;59408;51.032;9.410;2023-10-13T10:10:32;12.02;;;4.10;;
71572;SDS011;59408;51.032;9.410;2023-10-13T10:13:15;11.98;;;4.03;;
71572;SDS011;59408;51.032;9.410;2023-10-13T10:15:49;11.82;;;4.30;;
71572;SDS011;59408;51.032;9.410;2023-10-13T10:18:20;14.37;;;4.07;;
71572;SDS011;59408;51.032;9.410;2023-10-13T10:20:49;14.52;;;4.22;;
71572;SDS011;59408;51.032;9.410;2023-10-13T10:23:23;11.63;;;4.85;;
71572;SDS011;59408;51.032;9.410;2023-10-13T10:25:50;11.70;;;4.20;;
71572;SDS011;59408;51.032;9.410;2023-10-13T10:28:17;13.48;;;5.25;;
71572;SDS011;59408;51.032;9.410;2023-10-13T10:30:44;14.70;;;4.57;;
71572;SDS011;59408;51.032;9.410;2023-10-13T10:33:12;12.70;;;4.97;;
71572;SDS011;59408;51.032;9.410;2023-10-13T10:35:39;12.52;;;4.80;;
71572;SDS011;59408;51.032;9.410;2023-10-13T10:38:07;15.27;;;4.72;;
71572;SDS011;59408;51.032;9.410;2023-10-13T10:40:34;14.52;;;4.40;;
71572;SDS011;59408;51.032;9.410;2023-10-13T10:43:01;11.27;;;4.67;;
71572;SDS011;59408;51.032;9.410;2023-10-13T10:45:36;13.05;;;5.00;;
71572;SDS011;59408;51.032;9.410;2023-10-13T10:48:05;11.43;;;4.70;;
71572;SDS011;59408;51.032;9.410;2023-10-13T10:50:33;11.80;;;4.72;;
71572;SDS011;59408;51.032;9.410;2023-10-13T10:52:59;13.25;;;5.68;;
71572;SDS011;59408;51.032;9.410;2023-10-13T10:55:26;11.50;;;5.10;;
71572;SDS011;59408;51.032;9.410;2023-10-13T10:57:57;12.82;;;5.00;;
71572;SDS011;59408;51.032;9.410;2023-10-13T11:00:24;8.75;;;4.13;;
71572;SDS011;59408;51.032;9.410;2023-10-13T11:02:54;9.77;;;4.40;;
71572;SDS011;59408;51.032;9.410;2023-10-13T11:05:21;9.75;;;4.85;;
71572;SDS011;59408;51.032;9.410;2023-10-13T11:07:49;12.83;;;5.43;;
71572;SDS011;59408;51.032;9.410;2023-10-13T11:10:16;14.55;;;5.25;;
71572;SDS011;59408;51.032;9.410;2023-10-13T11:12:53;12.30;;;5.00;;
71572;SDS011;59408;51.032;9.410;2023-10-13T11:15:20;13.00;;;5.22;;
71572;SDS011;59408;51.032;9.410;2023-10-13T11:17:47;11.32;;;5.25;;
71572;SDS011;59408;51.032;9.410;2023-10-13T11:20:16;10.93;;;4.90;;
71572;SDS011;59408;51.032;9.410;2023-10-13T11:22:46;12.98;;;4.85;;
71572;SDS011;59408;51.032;9.410;2023-10-13T11:25:21;10.73;;;5.05;;
71572;SDS011;59408;51.032;9.410;2023-10-13T11:27:49;13.20;;;5.20;;
71572;SDS011;59408;51.032;9.410;2023-10-13T11:30:16;12.00;;;4.97;;
71572;SDS011;59408;51.032;9.410;2023-10-13T11:32:43;10.43;;;4.87;;
71572;SDS011;59408;51.032;9.410;2023-10-13T11:35:10;12.25;;;4.95;;
71572;SDS011;59408;51.032;9.410;2023-10-13T11:37:36;10.93;;;5.18;;
71572;SDS011;59408;51.032;9.410;2023-10-13T11:40:03;10.68;;;5.43;;
71572;SDS011;59408;51.032;9.410;2023-10-13T11:42:32;11.25;;;5.50;;
71572;SDS011;59408;51.032;9.410;2023-10-13T11:44:58;12.03;;;5.40;;
71572;SDS011;59408;51.032;9.410;2023-10-13T11:47:25;11.48;;;4.72;;
71572;SDS011;59408;51.032;9.410;2023-10-13T11:49:51;12.40;;;5.90;;
71572;SDS011;59408;51.032;9.410;2023-10-13T11:52:18;11.10;;;5.32;;
71572;SDS011;59408;51.032;9.410;2023-10-13T11:54:44;12.57;;;5.07;;
71572;SDS011;59408;51.032;9.410;2023-10-13T11:57:11;9.97;;;5.07;;
71572;SDS011;59408;51.032;9.410;2023-10-13T11:59:39;11.82;;;5.15;;
71572;SDS011;59408;51.032;9.410;2023-10-13T12:02:05;9.65;;;5.32;;
71572;SDS011;59408;51.032;9.410;2023-10-13T12:04:32;10.63;;;5.25;;
71572;SDS011;59408;51.032;9.410;2023-10-13T12:06:59;10.10;;;5.22;;
71572;SDS011;59408;51.032;9.410;2023-10-13T12:09:26;11.67;;;5.17;;
71572;SDS011;59408;51.032;9.410;2023-10-13T12:11:52;11.57;;;5.57;;
71572;SDS011;59408;51.032;9.410;2023-10-13T12:14:18;12.30;;;5.43;;
71572;SDS011;59408;51.032;9.410;2023-10-13T12:16:47;14.18;;;5.22;;
71572;SDS011;59408;51.032;9.410;2023-10-13T12:19:15;12.57;;;5.68;;
71572;SDS011;59408;51.032;9.410;2023-10-13T12:21:42;12.83;;;5.73;;
71572;SDS011;59408;51.032;9.410;2023-10-13T12:24:09;15.02;;;5.47;;
71572;SDS011;59408;51.032;9.410;2023-10-13T12:26:35;12.63;;;5.95;;
71572;SDS011;59408;51.032;9.410;2023-10-13T12:29:02;13.30;;;5.30;;
71572;SDS011;59408;51.032;9.410;2023-10-13T12:31:28;11.85;;;5.30;;
71572;SDS011;59408;51.032;9.410;2023-10-13T12:33:56;10.33;;;5.30;;
71572;SDS011;59408;51.032;9.410;2023-10-13T12:36:22;12.60;;;5.50;;
71572;SDS011;59408;51.032;9.410;2023-10-13T12:38:49;12.70;;;5.55;;
71572;SDS011;59408;51.032;9.410;2023-10-13T12:41:16;13.32;;;5.47;;
71572;SDS011;59408;51.032;9.410;2023-10-13T12:44:00;12.10;;;5.50;;
71572;SDS011;59408;51.032;9.410;2023-10-13T12:46:26;11.77;;;5.97;;
71572;SDS011;59408;51.032;9.410;2023-10-13T12:48:53;11.95;;;6.10;;
71572;SDS011;59408;51.032;9.410;2023-10-13T12:51:21;13.70;;;6.07;;
71572;SDS011;59408;51.032;9.410;2023-10-13T12:53:48;14.00;;;5.63;;
71572;SDS011;59408;51.032;9.410;2023-10-13T12:56:16;10.77;;;5.60;;
71572;SDS011;59408;51.032;9.410;2023-10-13T12:58:43;12.83;;;6.07;;
71572;SDS011;59408;51.032;9.410;2023-10-13T13:01:10;12.10;;;5.57;;
71572;SDS011;59408;51.032;9.410;2023-10-13T13:03:36;13.80;;;5.68;;
71572;SDS011;59408;51.032;9.410;2023-10-13T13:06:03;11.73;;;5.30;;
71572;SDS011;59408;51.032;9.410;2023-10-13T13:08:31;9.93;;;5.47;;
71572;SDS011;59408;51.032;9.410;2023-10-13T13:10:57;10.40;;;5.27;;
71572;SDS011;59408;51.032;9.410;2023-10-13T13:13:24;10.70;;;5.82;;
71572;SDS011;59408;51.032;9.410;2023-10-13T13:15:50;11.35;;;5.30;;
71572;SDS011;59408;51.032;9.410;2023-10-13T13:18:17;9.93;;;5.70;;
71572;SDS011;59408;51.032;9.410;2023-10-13T13:20:43;17.13;;;5.97;;
71572;SDS011;59408;51.032;9.410;2023-10-13T13:23:09;14.37;;;5.93;;
71572;SDS011;59408;51.032;9.410;2023-10-13T13:25:37;10.40;;;5.20;;
71572;SDS011;59408;51.032;9.410;2023-10-13T13:28:04;10.18;;;5.28;;
71572;SDS011;59408;51.032;9.410;2023-10-13T13:30:31;9.98;;;5.80;;
71572;SDS011;59408;51.032;9.410;2023-10-13T13:32:58;12.32;;;6.22;;
71572;SDS011;59408;51.032;9.410;2023-10-13T13:35:24;10.20;;;5.40;;
71572;SDS011;59408;51.032;9.410;2023-10-13T13:37:51;12.00;;;5.72;;
71572;SDS011;59408;51.032;9.410;2023-10-13T13:40:18;12.05;;;5.50;;
71572;SDS011;59408;51.032;9.410;2023-10-13T13:42:45;10.90;;;5.65;;
71572;SDS011;59408;51.032;9.410;2023-10-13T13:45:12;13.20;;;5.97;;
71572;SDS011;59408;51.032;9.410;2023-10-13T13:47:39;10.97;;;5.93;;
71572;SDS011;59408;51.032;9.410;2023-10-13T13:50:06;10.90;;;6.10;;
71572;SDS011;59408;51.032;9.410;2023-10-13T13:52:32;12.60;;;5.95;;
71572;SDS011;59408;51.032;9.410;2023-10-13T13:54:59;11.90;;;5.70;;
71572;SDS011;59408;51.032;9.410;2023-10-13T13:57:25;12.63;;;6.20;;
71572;SDS011;59408;51.032;9.410;2023-10-13T13:59:53;10.23;;;5.80;;
71572;SDS011;59408;51.032;9.410;2023-10-13T14:02:20;11.48;;;5.40;;
71572;SDS011;59408;51.032;9.410;2023-10-13T14:04:47;10.43;;;5.50;;
71572;SDS011;59408;51.032;9.410;2023-10-13T14:07:13;13.07;;;6.00;;
71572;SDS011;59408;51.032;9.410;2023-10-13T14:09:40;11.90;;;5.72;;
71572;SDS011;59408;51.032;9.410;2023-10-13T14:12:06;10.47;;;5.43;;
71572;SDS011;59408;51.032;9.410;2023-10-13T14:14:33;12.23;;;5.22;;
71572;SDS011;59408;51.032;9.410;2023-10-13T14:17:01;13.40;;;5.57;;
71572;SDS011;59408;51.032;9.410;2023-10-13T14:19:28;9.82;;;5.22;;
71572;SDS011;59408;51.032;9.410;2023-10-13T14:21:55;12.57;;;5.88;;
71572;SDS011;59408;51.032;9.410;2023-10-13T14:24:22;11.80;;;5.57;;
71572;SDS011;59408;51.032;9.410;2023-10-13T14:26:48;11.52;;;5.30;;
71572;SDS011;59408;51.032;9.410;2023-10-13T14:29:15;10.02;;;5.25;;
71572;SDS011;59408;51.032;9.410;2023-10-13T14:31:41;12.07;;;5.32;;
71572;SDS011;59408;51.032;9.410;2023-10-13T14:34:09;9.07;;;5.03;;
71572;SDS011;59408;51.032;9.410;2023-10-13T14:36:36;13.23;;;5.57;;